sensor_id;sensor_type;location;lat;lon;timestamp;temperature;humidity
56428;DHT22;42331;53.578;9.760;2023-07-28T00:01:46;15.90;99.90
56428;DHT22;42331;53.578;9.760;2023-07-28T00:04:16;15.90;99.90
56428;DHT22;42331;53.578;9.760;2023-07-28T00:06:47;15.90;99.90
56428;DHT22;42331;53.578;9.760;2023-07-28T00:09:17;15.90;99.90
56428;DHT22;42331;53.578;9.760;2023-07-28T00:11:48;15.90;99.90
56428;DHT22;42331;53.578;9.760;2023-07-28T00:14:19;15.90;99.90
56428;DHT22;42331;53.578;9.760;2023-07-28T00:16:51;15.90;99.90
56428;DHT22;42331;53.578;9.760;2023-07-28T00:19:22;15.90;99.90
56428;DHT22;42331;53.578;9.760;2023-07-28T00:21:53;15.90;99.90
56428;DHT22;42331;53.578;9.760;2023-07-28T00:24:23;15.90;99.90
56428;DHT22;42331;53.578;9.760;2023-07-28T00:26:54;15.90;99.90
56428;DHT22;42331;53.578;9.760;2023-07-28T00:29:25;15.90;99.90
56428;DHT22;42331;53.578;9.760;2023-07-28T00:31:55;15.90;99.90
56428;DHT22;42331;53.578;9.760;2023-07-28T00:34:26;15.90;99.90
56428;DHT22;42331;53.578;9.760;2023-07-28T00:36:57;15.90;99.90
56428;DHT22;42331;53.578;9.760;2023-07-28T00:39:28;15.90;99.90
56428;DHT22;42331;53.578;9.760;2023-07-28T00:41:59;15.80;99.90
56428;DHT22;42331;53.578;9.760;2023-07-28T00:44:29;15.80;99.90
56428;DHT22;42331;53.578;9.760;2023-07-28T00:47:00;15.80;99.90
56428;DHT22;42331;53.578;9.760;2023-07-28T00:49:31;15.80;99.90
56428;DHT22;42331;53.578;9.760;2023-07-28T00:52:02;15.80;99.90
56428;DHT22;42331;53.578;9.760;2023-07-28T00:54:34;15.80;99.90
56428;DHT22;42331;53.578;9.760;2023-07-28T00:57:05;15.90;99.90
56428;DHT22;42331;53.578;9.760;2023-07-28T00:59:35;15.90;99.90
56428;DHT22;42331;53.578;9.760;2023-07-28T01:02:06;15.90;99.90
56428;DHT22;42331;53.578;9.760;2023-07-28T01:04:37;15.90;99.90
56428;DHT22;42331;53.578;9.760;2023-07-28T01:07:30;15.90;99.90
56428;DHT22;42331;53.578;9.760;2023-07-28T01:10:14;15.90;99.90
56428;DHT22;42331;53.578;9.760;2023-07-28T01:12:47;15.90;99.90
56428;DHT22;42331;53.578;9.760;2023-07-28T01:15:18;15.80;99.90
56428;DHT22;42331;53.578;9.760;2023-07-28T01:17:49;15.90;99.90
56428;DHT22;42331;53.578;9.760;2023-07-28T01:20:22;15.90;99.90
56428;DHT22;42331;53.578;9.760;2023-07-28T01:23:20;15.90;99.90
56428;DHT22;42331;53.578;9.760;2023-07-28T01:26:10;15.90;99.90
56428;DHT22;42331;53.578;9.760;2023-07-28T01:28:42;15.90;99.90
56428;DHT22;42331;53.578;9.760;2023-07-28T01:31:13;15.90;99.90
56428;DHT22;42331;53.578;9.760;2023-07-28T01:33:44;15.90;99.90
56428;DHT22;42331;53.578;9.760;2023-07-28T01:36:15;15.90;99.90
56428;DHT22;42331;53.578;9.760;2023-07-28T01:38:46;15.90;99.90
56428;DHT22;42331;53.578;9.760;2023-07-28T01:41:16;15.90;99.90
56428;DHT22;42331;53.578;9.760;2023-07-28T01:43:47;15.90;99.90
56428;DHT22;42331;53.578;9.760;2023-07-28T01:46:18;15.90;99.90
56428;DHT22;42331;53.578;9.760;2023-07-28T01:48:48;15.90;99.90
56428;DHT22;42331;53.578;9.760;2023-07-28T01:51:19;15.90;99.90
56428;DHT22;42331;53.578;9.760;2023-07-28T01:53:50;15.90;99.90
56428;DHT22;42331;53.578;9.760;2023-07-28T01:56:20;15.90;99.90
56428;DHT22;42331;53.578;9.760;2023-07-28T01:58:51;15.90;99.90
56428;DHT22;42331;53.578;9.760;2023-07-28T02:01:22;15.90;99.90
56428;DHT22;42331;53.578;9.760;2023-07-28T02:03:52;15.90;99.90
56428;DHT22;42331;53.578;9.760;2023-07-28T02:06:23;15.90;99.90
56428;DHT22;42331;53.578;9.760;2023-07-28T02:08:53;15.80;99.90
56428;DHT22;42331;53.578;9.760;2023-07-28T02:11:24;15.80;99.90
56428;DHT22;42331;53.578;9.760;2023-07-28T02:13:55;15.80;99.90
56428;DHT22;42331;53.578;9.760;2023-07-28T02:16:25;15.80;99.90
56428;DHT22;42331;53.578;9.760;2023-07-28T02:18:57;15.80;99.90
56428;DHT22;42331;53.578;9.760;2023-07-28T02:21:28;15.80;99.90
56428;DHT22;42331;53.578;9.760;2023-07-28T02:24:00;15.80;99.90
56428;DHT22;42331;53.578;9.760;2023-07-28T02:26:30;15.80;99.90
56428;DHT22;42331;53.578;9.760;2023-07-28T02:29:01;15.80;99.90
56428;DHT22;42331;53.578;9.760;2023-07-28T02:31:32;15.90;99.90
56428;DHT22;42331;53.578;9.760;2023-07-28T02:34:02;15.90;99.90
56428;DHT22;42331;53.578;9.760;2023-07-28T02:36:33;15.90;99.90
56428;DHT22;42331;53.578;9.760;2023-07-28T02:39:04;15.80;99.90
56428;DHT22;42331;53.578;9.760;2023-07-28T02:41:34;15.80;99.90
56428;DHT22;42331;53.578;9.760;2023-07-28T02:44:05;15.80;99.90
56428;DHT22;42331;53.578;9.760;2023-07-28T02:46:36;15.80;99.90
56428;DHT22;42331;53.578;9.760;2023-07-28T02:49:07;15.80;99.90
56428;DHT22;42331;53.578;9.760;2023-07-28T02:51:38;15.70;99.90
56428;DHT22;42331;53.578;9.760;2023-07-28T02:54:09;15.70;99.90
56428;DHT22;42331;53.578;9.760;2023-07-28T02:56:40;15.70;99.90
56428;DHT22;42331;53.578;9.760;2023-07-28T02:59:11;15.70;99.90
56428;DHT22;42331;53.578;9.760;2023-07-28T03:01:41;15.70;99.90
56428;DHT22;42331;53.578;9.760;2023-07-28T03:04:12;15.70;99.90
56428;DHT22;42331;53.578;9.760;2023-07-28T03:06:43;15.70;99.90
56428;DHT22;42331;53.578;9.760;2023-07-28T03:09:13;15.70;99.90
56428;DHT22;42331;53.578;9.760;2023-07-28T03:11:45;15.60;99.90
56428;DHT22;42331;53.578;9.760;2023-07-28T03:14:16;15.70;99.90
56428;DHT22;42331;53.578;9.760;2023-07-28T03:16:47;15.60;99.90
56428;DHT22;42331;53.578;9.760;2023-07-28T03:19:18;15.60;99.90
56428;DHT22;42331;53.578;9.760;2023-07-28T03:21:49;15.60;99.90
56428;DHT22;42331;53.578;9.760;2023-07-28T03:24:19;15.60;99.90
56428;DHT22;42331;53.578;9.760;2023-07-28T03:26:50;15.60;99.90
56428;DHT22;42331;53.578;9.760;2023-07-28T03:29:21;15.60;99.90
56428;DHT22;42331;53.578;9.760;2023-07-28T03:31:52;15.60;99.90
56428;DHT22;42331;53.578;9.760;2023-07-28T03:34:22;15.60;99.90
56428;DHT22;42331;53.578;9.760;2023-07-28T03:36:53;15.60;99.90
56428;DHT22;42331;53.578;9.760;2023-07-28T03:39:24;15.60;99.90
56428;DHT22;42331;53.578;9.760;2023-07-28T03:41:55;15.60;99.90
56428;DHT22;42331;53.578;9.760;2023-07-28T03:44:26;15.60;99.90
56428;DHT22;42331;53.578;9.760;2023-07-28T03:46:56;15.60;99.90
56428;DHT22;42331;53.578;9.760;2023-07-28T03:49:27;15.60;99.90
56428;DHT22;42331;53.578;9.760;2023-07-28T03:51:58;15.50;99.90
56428;DHT22;42331;53.578;9.760;2023-07-28T03:54:28;15.50;99.90
56428;DHT22;42331;53.578;9.760;2023-07-28T03:56:59;15.50;99.90
56428;DHT22;42331;53.578;9.760;2023-07-28T03:59:30;15.60;99.90
56428;DHT22;42331;53.578;9.760;2023-07-28T04:02:00;15.60;99.90
56428;DHT22;42331;53.578;9.760;2023-07-28T04:04:31;15.60;99.90
56428;DHT22;42331;53.578;9.760;2023-07-28T04:07:02;15.60;99.90
56428;DHT22;42331;53.578;9.760;2023-07-28T04:09:33;15.50;99.90
56428;DHT22;42331;53.578;9.760;2023-07-28T04:12:03;15.50;99.90
56428;DHT22;42331;53.578;9.760;2023-07-28T04:14:34;15.50;99.90
56428;DHT22;42331;53.578;9.760;2023-07-28T04:17:06;15.60;99.90
56428;DHT22;42331;53.578;9.760;2023-07-28T04:19:37;15.50;99.90
56428;DHT22;42331;53.578;9.760;2023-07-28T04:22:08;15.60;99.90
56428;DHT22;42331;53.578;9.760;2023-07-28T04:24:38;15.50;99.90
56428;DHT22;42331;53.578;9.760;2023-07-28T04:27:09;15.50;99.90
56428;DHT22;42331;53.578;9.760;2023-07-28T04:29:40;15.50;99.90
56428;DHT22;42331;53.578;9.760;2023-07-28T04:32:10;15.50;99.90
56428;DHT22;42331;53.578;9.760;2023-07-28T04:34:41;15.50;99.90
56428;DHT22;42331;53.578;9.760;2023-07-28T04:37:12;15.50;99.90
56428;DHT22;42331;53.578;9.760;2023-07-28T04:39:42;15.60;99.90
56428;DHT22;42331;53.578;9.760;2023-07-28T04:42:13;15.60;99.90
56428;DHT22;42331;53.578;9.760;2023-07-28T04:44:44;15.60;99.90
56428;DHT22;42331;53.578;9.760;2023-07-28T04:47:16;15.60;99.90
56428;DHT22;42331;53.578;9.760;2023-07-28T04:49:46;15.70;99.90
56428;DHT22;42331;53.578;9.760;2023-07-28T04:52:17;15.60;99.90
56428;DHT22;42331;53.578;9.760;2023-07-28T04:54:48;15.70;99.90
56428;DHT22;42331;53.578;9.760;2023-07-28T04:57:19;15.70;99.90
56428;DHT22;42331;53.578;9.760;2023-07-28T04:59:49;15.70;99.90
56428;DHT22;42331;53.578;9.760;2023-07-28T05:02:20;15.80;99.90
56428;DHT22;42331;53.578;9.760;2023-07-28T05:04:51;15.80;99.90
56428;DHT22;42331;53.578;9.760;2023-07-28T05:07:22;15.80;99.90
56428;DHT22;42331;53.578;9.760;2023-07-28T05:09:52;15.80;99.90
56428;DHT22;42331;53.578;9.760;2023-07-28T05:12:23;15.80;99.90
56428;DHT22;42331;53.578;9.760;2023-07-28T05:14:54;15.80;99.90
56428;DHT22;42331;53.578;9.760;2023-07-28T05:17:25;15.90;99.90
56428;DHT22;42331;53.578;9.760;2023-07-28T05:19:56;15.90;99.90
56428;DHT22;42331;53.578;9.760;2023-07-28T05:22:26;15.90;99.90
56428;DHT22;42331;53.578;9.760;2023-07-28T05:24:57;15.90;99.90
56428;DHT22;42331;53.578;9.760;2023-07-28T05:27:28;15.90;99.90
56428;DHT22;42331;53.578;9.760;2023-07-28T05:29:59;16.00;99.90
56428;DHT22;42331;53.578;9.760;2023-07-28T05:32:29;16.00;99.90
56428;DHT22;42331;53.578;9.760;2023-07-28T05:35:00;15.90;99.90
56428;DHT22;42331;53.578;9.760;2023-07-28T05:37:31;15.90;99.90
56428;DHT22;42331;53.578;9.760;2023-07-28T05:40:02;15.90;99.90
56428;DHT22;42331;53.578;9.760;2023-07-28T05:42:33;15.90;99.90
56428;DHT22;42331;53.578;9.760;2023-07-28T05:45:05;15.90;99.90
56428;DHT22;42331;53.578;9.760;2023-07-28T05:47:36;16.00;99.90
56428;DHT22;42331;53.578;9.760;2023-07-28T05:50:06;15.90;99.90
56428;DHT22;42331;53.578;9.760;2023-07-28T05:52:37;16.00;99.90
56428;DHT22;42331;53.578;9.760;2023-07-28T05:55:08;16.10;99.90
56428;DHT22;42331;53.578;9.760;2023-07-28T05:57:39;16.20;99.90
56428;DHT22;42331;53.578;9.760;2023-07-28T06:00:10;16.20;99.90
56428;DHT22;42331;53.578;9.760;2023-07-28T06:02:42;16.20;99.90
56428;DHT22;42331;53.578;9.760;2023-07-28T06:05:13;16.30;99.90
56428;DHT22;42331;53.578;9.760;2023-07-28T06:07:43;16.30;99.90
56428;DHT22;42331;53.578;9.760;2023-07-28T06:10:14;16.30;99.90
56428;DHT22;42331;53.578;9.760;2023-07-28T06:12:45;16.40;99.90
56428;DHT22;42331;53.578;9.760;2023-07-28T06:15:15;16.50;99.90
56428;DHT22;42331;53.578;9.760;2023-07-28T06:17:46;16.50;99.90
56428;DHT22;42331;53.578;9.760;2023-07-28T06:20:17;16.60;99.90
56428;DHT22;42331;53.578;9.760;2023-07-28T06:22:47;16.60;99.90
56428;DHT22;42331;53.578;9.760;2023-07-28T06:25:18;16.50;99.90
56428;DHT22;42331;53.578;9.760;2023-07-28T06:27:49;16.60;99.90
56428;DHT22;42331;53.578;9.760;2023-07-28T06:30:19;16.70;99.90
56428;DHT22;42331;53.578;9.760;2023-07-28T06:32:51;16.60;99.90
56428;DHT22;42331;53.578;9.760;2023-07-28T06:35:21;16.60;99.90
56428;DHT22;42331;53.578;9.760;2023-07-28T06:37:53;16.70;99.90
56428;DHT22;42331;53.578;9.760;2023-07-28T06:40:23;16.70;99.90
56428;DHT22;42331;53.578;9.760;2023-07-28T06:42:55;16.80;99.90
56428;DHT22;42331;53.578;9.760;2023-07-28T06:45:25;16.80;99.90
56428;DHT22;42331;53.578;9.760;2023-07-28T06:47:56;16.80;99.90
56428;DHT22;42331;53.578;9.760;2023-07-28T06:50:27;16.90;99.90
56428;DHT22;42331;53.578;9.760;2023-07-28T06:52:57;16.90;99.90
56428;DHT22;42331;53.578;9.760;2023-07-28T06:55:28;16.90;99.90
56428;DHT22;42331;53.578;9.760;2023-07-28T06:57:59;17.00;99.90
56428;DHT22;42331;53.578;9.760;2023-07-28T07:00:29;16.90;99.90
56428;DHT22;42331;53.578;9.760;2023-07-28T07:03:00;16.90;99.90
56428;DHT22;42331;53.578;9.760;2023-07-28T07:05:31;16.80;99.90
56428;DHT22;42331;53.578;9.760;2023-07-28T07:08:02;17.00;99.90
56428;DHT22;42331;53.578;9.760;2023-07-28T07:10:33;17.00;99.90
56428;DHT22;42331;53.578;9.760;2023-07-28T07:13:04;17.10;99.90
56428;DHT22;42331;53.578;9.760;2023-07-28T07:15:34;17.00;99.90
56428;DHT22;42331;53.578;9.760;2023-07-28T07:18:06;17.00;99.90
56428;DHT22;42331;53.578;9.760;2023-07-28T07:20:37;17.10;99.90
56428;DHT22;42331;53.578;9.760;2023-07-28T07:23:08;17.10;99.90
56428;DHT22;42331;53.578;9.760;2023-07-28T07:25:39;17.20;99.90
56428;DHT22;42331;53.578;9.760;2023-07-28T07:28:10;17.20;99.90
56428;DHT22;42331;53.578;9.760;2023-07-28T07:30:41;17.10;99.90
56428;DHT22;42331;53.578;9.760;2023-07-28T07:33:11;17.10;99.90
56428;DHT22;42331;53.578;9.760;2023-07-28T07:35:42;17.20;99.90
56428;DHT22;42331;53.578;9.760;2023-07-28T07:38:13;17.10;99.90
56428;DHT22;42331;53.578;9.760;2023-07-28T07:40:47;17.10;99.90
56428;DHT22;42331;53.578;9.760;2023-07-28T07:43:18;17.00;99.90
56428;DHT22;42331;53.578;9.760;2023-07-28T07:45:50;17.00;99.90
56428;DHT22;42331;53.578;9.760;2023-07-28T07:48:24;17.10;99.90
56428;DHT22;42331;53.578;9.760;2023-07-28T07:50:55;17.00;99.90
56428;DHT22;42331;53.578;9.760;2023-07-28T07:53:26;17.10;99.90
56428;DHT22;42331;53.578;9.760;2023-07-28T07:55:56;17.20;99.90
56428;DHT22;42331;53.578;9.760;2023-07-28T07:58:27;17.30;99.90
56428;DHT22;42331;53.578;9.760;2023-07-28T08:00:58;17.30;99.90
56428;DHT22;42331;53.578;9.760;2023-07-28T08:03:29;17.30;99.90
56428;DHT22;42331;53.578;9.760;2023-07-28T08:06:00;17.40;99.90
56428;DHT22;42331;53.578;9.760;2023-07-28T08:08:31;17.40;99.90
56428;DHT22;42331;53.578;9.760;2023-07-28T08:11:01;17.40;99.90
56428;DHT22;42331;53.578;9.760;2023-07-28T08:13:32;17.40;99.90
56428;DHT22;42331;53.578;9.760;2023-07-28T08:16:03;17.30;99.90
56428;DHT22;42331;53.578;9.760;2023-07-28T08:18:34;17.40;99.90
56428;DHT22;42331;53.578;9.760;2023-07-28T08:21:05;17.40;99.90
56428;DHT22;42331;53.578;9.760;2023-07-28T08:23:35;17.40;99.90
56428;DHT22;42331;53.578;9.760;2023-07-28T08:26:06;17.40;99.90
56428;DHT22;42331;53.578;9.760;2023-07-28T08:28:37;17.50;99.90
56428;DHT22;42331;53.578;9.760;2023-07-28T08:31:08;17.50;99.90
56428;DHT22;42331;53.578;9.760;2023-07-28T08:33:38;17.60;99.90
56428;DHT22;42331;53.578;9.760;2023-07-28T08:40:17;17.70;99.90
56428;DHT22;42331;53.578;9.760;2023-07-28T08:42:51;17.70;99.90
56428;DHT22;42331;53.578;9.760;2023-07-28T08:45:22;17.70;99.90
56428;DHT22;42331;53.578;9.760;2023-07-28T08:47:54;17.80;99.90
56428;DHT22;42331;53.578;9.760;2023-07-28T08:50:25;17.80;99.90
56428;DHT22;42331;53.578;9.760;2023-07-28T08:52:56;17.90;99.90
56428;DHT22;42331;53.578;9.760;2023-07-28T08:55:27;17.90;99.90
56428;DHT22;42331;53.578;9.760;2023-07-28T08:58:21;18.00;99.90
56428;DHT22;42331;53.578;9.760;2023-07-28T09:00:52;18.00;99.90
56428;DHT22;42331;53.578;9.760;2023-07-28T09:03:23;18.00;99.90
56428;DHT22;42331;53.578;9.760;2023-07-28T09:06:01;18.00;99.90
56428;DHT22;42331;53.578;9.760;2023-07-28T09:08:32;18.00;99.90
56428;DHT22;42331;53.578;9.760;2023-07-28T09:11:05;18.00;99.90
56428;DHT22;42331;53.578;9.760;2023-07-28T09:13:40;18.00;99.90
56428;DHT22;42331;53.578;9.760;2023-07-28T09:16:20;18.00;99.90
56428;DHT22;42331;53.578;9.760;2023-07-28T09:19:05;18.10;99.90
56428;DHT22;42331;53.578;9.760;2023-07-28T09:21:39;18.20;99.90
56428;DHT22;42331;53.578;9.760;2023-07-28T09:24:11;18.20;99.90
56428;DHT22;42331;53.578;9.760;2023-07-28T09:26:44;18.30;99.90
56428;DHT22;42331;53.578;9.760;2023-07-28T09:29:20;18.30;99.90
56428;DHT22;42331;53.578;9.760;2023-07-28T09:31:54;18.20;99.90
56428;DHT22;42331;53.578;9.760;2023-07-28T09:34:33;18.20;99.90
56428;DHT22;42331;53.578;9.760;2023-07-28T09:37:05;18.20;99.90
56428;DHT22;42331;53.578;9.760;2023-07-28T09:39:37;18.30;99.90
56428;DHT22;42331;53.578;9.760;2023-07-28T09:42:09;18.30;99.90
56428;DHT22;42331;53.578;9.760;2023-07-28T09:44:40;18.40;99.90
56428;DHT22;42331;53.578;9.760;2023-07-28T09:47:11;18.40;99.90
56428;DHT22;42331;53.578;9.760;2023-07-28T09:49:46;18.50;99.90
56428;DHT22;42331;53.578;9.760;2023-07-28T09:52:19;18.50;99.90
56428;DHT22;42331;53.578;9.760;2023-07-28T09:54:55;18.50;99.90
56428;DHT22;42331;53.578;9.760;2023-07-28T09:57:27;18.60;99.90
56428;DHT22;42331;53.578;9.760;2023-07-28T10:00:00;18.70;99.90
56428;DHT22;42331;53.578;9.760;2023-07-28T10:02:32;18.70;99.90
56428;DHT22;42331;53.578;9.760;2023-07-28T10:05:04;18.90;99.90
56428;DHT22;42331;53.578;9.760;2023-07-28T10:07:37;18.90;99.90
56428;DHT22;42331;53.578;9.760;2023-07-28T10:10:11;18.90;99.90
56428;DHT22;42331;53.578;9.760;2023-07-28T10:12:50;19.00;99.90
56428;DHT22;42331;53.578;9.760;2023-07-28T10:15:28;18.90;99.90
56428;DHT22;42331;53.578;9.760;2023-07-28T10:17:59;18.90;99.90
56428;DHT22;42331;53.578;9.760;2023-07-28T10:25:45;18.80;99.90
56428;DHT22;42331;53.578;9.760;2023-07-28T10:28:38;18.90;99.90
56428;DHT22;42331;53.578;9.760;2023-07-28T10:31:11;18.90;99.90
56428;DHT22;42331;53.578;9.760;2023-07-28T10:33:45;19.20;99.90
56428;DHT22;42331;53.578;9.760;2023-07-28T10:44:29;19.20;99.90
56428;DHT22;42331;53.578;9.760;2023-07-28T10:47:01;19.20;99.90
56428;DHT22;42331;53.578;9.760;2023-07-28T10:49:32;19.40;99.90
56428;DHT22;42331;53.578;9.760;2023-07-28T10:52:04;19.50;99.90
56428;DHT22;42331;53.578;9.760;2023-07-28T10:54:34;19.60;99.90
56428;DHT22;42331;53.578;9.760;2023-07-28T10:57:05;19.50;99.90
56428;DHT22;42331;53.578;9.760;2023-07-28T10:59:36;19.40;99.90
56428;DHT22;42331;53.578;9.760;2023-07-28T11:02:07;19.40;99.90
56428;DHT22;42331;53.578;9.760;2023-07-28T11:04:37;19.40;99.90
56428;DHT22;42331;53.578;9.760;2023-07-28T11:07:08;19.40;99.90
56428;DHT22;42331;53.578;9.760;2023-07-28T11:09:41;19.40;99.90
56428;DHT22;42331;53.578;9.760;2023-07-28T11:12:13;19.50;99.90
56428;DHT22;42331;53.578;9.760;2023-07-28T11:14:44;19.50;99.90
56428;DHT22;42331;53.578;9.760;2023-07-28T11:17:15;19.50;99.90
56428;DHT22;42331;53.578;9.760;2023-07-28T11:19:46;19.40;99.90
56428;DHT22;42331;53.578;9.760;2023-07-28T11:22:17;19.60;99.90
56428;DHT22;42331;53.578;9.760;2023-07-28T11:24:51;19.70;99.90
56428;DHT22;42331;53.578;9.760;2023-07-28T11:27:22;19.90;99.90
56428;DHT22;42331;53.578;9.760;2023-07-28T11:29:53;20.00;99.90
56428;DHT22;42331;53.578;9.760;2023-07-28T11:32:24;20.30;99.90
56428;DHT22;42331;53.578;9.760;2023-07-28T11:34:54;20.40;99.90
56428;DHT22;42331;53.578;9.760;2023-07-28T11:37:25;20.60;99.90
56428;DHT22;42331;53.578;9.760;2023-07-28T11:39:56;20.80;99.90
56428;DHT22;42331;53.578;9.760;2023-07-28T11:42:29;20.70;99.90
56428;DHT22;42331;53.578;9.760;2023-07-28T11:45:04;20.80;99.90
56428;DHT22;42331;53.578;9.760;2023-07-28T11:47:36;21.00;99.90
56428;DHT22;42331;53.578;9.760;2023-07-28T11:50:07;20.80;99.90
56428;DHT22;42331;53.578;9.760;2023-07-28T11:52:38;20.80;99.90
56428;DHT22;42331;53.578;9.760;2023-07-28T11:55:09;20.80;99.90
56428;DHT22;42331;53.578;9.760;2023-07-28T11:57:40;20.70;99.90
56428;DHT22;42331;53.578;9.760;2023-07-28T12:00:11;20.40;99.90
56428;DHT22;42331;53.578;9.760;2023-07-28T12:02:44;20.30;99.90
56428;DHT22;42331;53.578;9.760;2023-07-28T12:05:15;20.30;99.90
56428;DHT22;42331;53.578;9.760;2023-07-28T12:07:49;20.20;99.90
56428;DHT22;42331;53.578;9.760;2023-07-28T12:10:20;20.00;99.90
56428;DHT22;42331;53.578;9.760;2023-07-28T12:12:50;20.10;99.90
56428;DHT22;42331;53.578;9.760;2023-07-28T12:18:12;20.40;99.90
56428;DHT22;42331;53.578;9.760;2023-07-28T12:20:45;20.60;99.90
56428;DHT22;42331;53.578;9.760;2023-07-28T12:23:21;20.60;99.90
56428;DHT22;42331;53.578;9.760;2023-07-28T12:25:52;20.80;99.90
56428;DHT22;42331;53.578;9.760;2023-07-28T12:28:25;20.90;99.90
56428;DHT22;42331;53.578;9.760;2023-07-28T12:30:56;21.00;99.90
56428;DHT22;42331;53.578;9.760;2023-07-28T12:33:29;20.90;99.90
56428;DHT22;42331;53.578;9.760;2023-07-28T12:36:00;20.80;99.90
56428;DHT22;42331;53.578;9.760;2023-07-28T12:38:30;20.70;99.90
56428;DHT22;42331;53.578;9.760;2023-07-28T12:41:01;20.60;99.90
56428;DHT22;42331;53.578;9.760;2023-07-28T12:43:32;20.50;99.90
56428;DHT22;42331;53.578;9.760;2023-07-28T12:46:02;20.30;99.90
56428;DHT22;42331;53.578;9.760;2023-07-28T12:48:33;20.30;99.90
56428;DHT22;42331;53.578;9.760;2023-07-28T12:51:04;20.20;99.90
56428;DHT22;42331;53.578;9.760;2023-07-28T12:53:35;19.90;99.90
56428;DHT22;42331;53.578;9.760;2023-07-28T12:56:06;19.90;99.90
56428;DHT22;42331;53.578;9.760;2023-07-28T12:58:36;19.80;99.90
56428;DHT22;42331;53.578;9.760;2023-07-28T13:01:07;19.80;99.90
56428;DHT22;42331;53.578;9.760;2023-07-28T13:03:39;20.00;99.90
56428;DHT22;42331;53.578;9.760;2023-07-28T13:06:10;20.10;99.90
56428;DHT22;42331;53.578;9.760;2023-07-28T13:08:40;20.10;99.90
56428;DHT22;42331;53.578;9.760;2023-07-28T13:11:11;20.10;99.90
56428;DHT22;42331;53.578;9.760;2023-07-28T13:13:44;20.00;99.90
56428;DHT22;42331;53.578;9.760;2023-07-28T13:16:15;20.00;99.90
56428;DHT22;42331;53.578;9.760;2023-07-28T13:18:46;20.20;99.90
56428;DHT22;42331;53.578;9.760;2023-07-28T13:21:17;20.30;99.90
56428;DHT22;42331;53.578;9.760;2023-07-28T13:23:47;20.30;99.90
56428;DHT22;42331;53.578;9.760;2023-07-28T13:26:18;20.40;99.90
56428;DHT22;42331;53.578;9.760;2023-07-28T13:28:49;20.50;99.90
56428;DHT22;42331;53.578;9.760;2023-07-28T13:31:19;20.70;99.90
56428;DHT22;42331;53.578;9.760;2023-07-28T13:33:50;20.80;99.90
56428;DHT22;42331;53.578;9.760;2023-07-28T13:36:21;20.80;99.90
56428;DHT22;42331;53.578;9.760;2023-07-28T13:38:51;20.80;99.90
56428;DHT22;42331;53.578;9.760;2023-07-28T13:41:22;20.90;99.90
56428;DHT22;42331;53.578;9.760;2023-07-28T13:43:53;21.00;99.90
56428;DHT22;42331;53.578;9.760;2023-07-28T13:46:23;21.00;99.90
56428;DHT22;42331;53.578;9.760;2023-07-28T13:48:54;20.70;99.90
56428;DHT22;42331;53.578;9.760;2023-07-28T13:51:25;20.90;99.90
56428;DHT22;42331;53.578;9.760;2023-07-28T13:53:55;21.00;99.90
56428;DHT22;42331;53.578;9.760;2023-07-28T13:56:26;21.20;99.90
56428;DHT22;42331;53.578;9.760;2023-07-28T13:58:58;21.30;99.90
56428;DHT22;42331;53.578;9.760;2023-07-28T14:01:29;21.20;99.90
56428;DHT22;42331;53.578;9.760;2023-07-28T14:04:00;21.00;99.90
56428;DHT22;42331;53.578;9.760;2023-07-28T14:06:30;21.10;99.90
56428;DHT22;42331;53.578;9.760;2023-07-28T14:09:01;21.00;99.90
56428;DHT22;42331;53.578;9.760;2023-07-28T14:11:32;21.20;99.90
56428;DHT22;42331;53.578;9.760;2023-07-28T14:14:02;21.30;99.90
56428;DHT22;42331;53.578;9.760;2023-07-28T14:16:33;21.30;99.90
56428;DHT22;42331;53.578;9.760;2023-07-28T14:19:04;21.10;99.90
56428;DHT22;42331;53.578;9.760;2023-07-28T14:21:34;21.10;99.90
56428;DHT22;42331;53.578;9.760;2023-07-28T14:24:08;21.10;99.90
56428;DHT22;42331;53.578;9.760;2023-07-28T14:26:39;21.10;99.90
56428;DHT22;42331;53.578;9.760;2023-07-28T14:29:09;21.20;99.90
56428;DHT22;42331;53.578;9.760;2023-07-28T14:31:40;21.40;99.90
56428;DHT22;42331;53.578;9.760;2023-07-28T14:34:11;21.50;99.90
56428;DHT22;42331;53.578;9.760;2023-07-28T14:36:42;21.60;99.90
56428;DHT22;42331;53.578;9.760;2023-07-28T14:39:12;21.50;99.90
56428;DHT22;42331;53.578;9.760;2023-07-28T14:41:43;21.50;99.90
56428;DHT22;42331;53.578;9.760;2023-07-28T14:44:14;21.50;99.90
56428;DHT22;42331;53.578;9.760;2023-07-28T14:46:44;21.30;99.90
56428;DHT22;42331;53.578;9.760;2023-07-28T14:49:16;21.20;99.90
56428;DHT22;42331;53.578;9.760;2023-07-28T14:51:47;21.10;99.90
56428;DHT22;42331;53.578;9.760;2023-07-28T14:54:18;21.10;99.90
56428;DHT22;42331;53.578;9.760;2023-07-28T14:56:48;21.10;99.90
56428;DHT22;42331;53.578;9.760;2023-07-28T14:59:19;21.20;99.90
56428;DHT22;42331;53.578;9.760;2023-07-28T15:01:50;21.30;99.90
56428;DHT22;42331;53.578;9.760;2023-07-28T15:04:21;21.30;99.90
56428;DHT22;42331;53.578;9.760;2023-07-28T15:06:52;21.30;99.90
56428;DHT22;42331;53.578;9.760;2023-07-28T15:09:22;21.20;99.90
56428;DHT22;42331;53.578;9.760;2023-07-28T15:11:54;21.20;99.90
56428;DHT22;42331;53.578;9.760;2023-07-28T15:14:24;21.10;99.90
56428;DHT22;42331;53.578;9.760;2023-07-28T15:16:55;21.10;99.90
56428;DHT22;42331;53.578;9.760;2023-07-28T15:19:25;21.10;99.90
56428;DHT22;42331;53.578;9.760;2023-07-28T15:21:56;21.00;99.90
56428;DHT22;42331;53.578;9.760;2023-07-28T15:24:27;21.00;99.90
56428;DHT22;42331;53.578;9.760;2023-07-28T15:26:58;21.00;99.90
56428;DHT22;42331;53.578;9.760;2023-07-28T15:29:29;20.90;99.90
56428;DHT22;42331;53.578;9.760;2023-07-28T15:32:00;20.90;99.90
56428;DHT22;42331;53.578;9.760;2023-07-28T15:34:30;20.80;99.90
56428;DHT22;42331;53.578;9.760;2023-07-28T15:37:02;20.80;99.90
56428;DHT22;42331;53.578;9.760;2023-07-28T15:39:33;20.80;99.90
56428;DHT22;42331;53.578;9.760;2023-07-28T15:42:04;20.90;99.90
56428;DHT22;42331;53.578;9.760;2023-07-28T15:44:35;21.00;99.90
56428;DHT22;42331;53.578;9.760;2023-07-28T15:47:06;21.10;99.90
56428;DHT22;42331;53.578;9.760;2023-07-28T15:49:36;21.20;99.90
56428;DHT22;42331;53.578;9.760;2023-07-28T15:52:07;21.10;99.90
56428;DHT22;42331;53.578;9.760;2023-07-28T15:54:38;21.00;99.90
56428;DHT22;42331;53.578;9.760;2023-07-28T15:57:08;21.10;99.90
56428;DHT22;42331;53.578;9.760;2023-07-28T15:59:39;21.20;99.90
56428;DHT22;42331;53.578;9.760;2023-07-28T16:02:10;21.20;99.90
56428;DHT22;42331;53.578;9.760;2023-07-28T16:04:41;21.20;99.90
56428;DHT22;42331;53.578;9.760;2023-07-28T16:07:11;21.20;99.90
56428;DHT22;42331;53.578;9.760;2023-07-28T16:09:42;21.20;99.90
56428;DHT22;42331;53.578;9.760;2023-07-28T16:12:16;21.00;99.90
56428;DHT22;42331;53.578;9.760;2023-07-28T16:14:47;21.00;99.90
56428;DHT22;42331;53.578;9.760;2023-07-28T16:17:17;21.00;99.90